sensor_id;sensor_type;location;lat;lon;timestamp;temperature;humidity
11617;DHT22;5864;52.998;9.068;2023-08-24T00:00:12;20.40;1.00
11617;DHT22;5864;52.998;9.068;2023-08-24T00:02:57;20.40;1.00
11617;DHT22;5864;52.998;9.068;2023-08-24T00:05:43;20.30;1.00
11617;DHT22;5864;52.998;9.068;2023-08-24T00:08:30;20.30;1.00
11617;DHT22;5864;52.998;9.068;2023-08-24T00:11:16;20.20;1.00
11617;DHT22;5864;52.998;9.068;2023-08-24T00:14:02;20.20;1.00
11617;DHT22;5864;52.998;9.068;2023-08-24T00:16:48;20.10;1.00
11617;DHT22;5864;52.998;9.068;2023-08-24T00:19:33;20.10;1.00
11617;DHT22;5864;52.998;9.068;2023-08-24T00:22:19;20.10;1.00
11617;DHT22;5864;52.998;9.068;2023-08-24T00:25:07;20.10;1.00
11617;DHT22;5864;52.998;9.068;2023-08-24T00:27:53;19.90;1.00
11617;DHT22;5864;52.998;9.068;2023-08-24T00:30:38;19.90;1.00
11617;DHT22;5864;52.998;9.068;2023-08-24T00:33:24;19.80;1.00
11617;DHT22;5864;52.998;9.068;2023-08-24T00:36:09;19.80;1.00
11617;DHT22;5864;52.998;9.068;2023-08-24T00:38:56;19.80;1.00
11617;DHT22;5864;52.998;9.068;2023-08-24T00:41:43;19.70;1.00
11617;DHT22;5864;52.998;9.068;2023-08-24T00:44:29;19.70;1.00
11617;DHT22;5864;52.998;9.068;2023-08-24T00:47:16;19.70;1.00
11617;DHT22;5864;52.998;9.068;2023-08-24T00:50:04;19.60;1.00
11617;DHT22;5864;52.998;9.068;2023-08-24T00:52:50;19.60;1.00
11617;DHT22;5864;52.998;9.068;2023-08-24T00:55:36;19.60;1.00
11617;DHT22;5864;52.998;9.068;2023-08-24T00:58:23;19.60;1.00
11617;DHT22;5864;52.998;9.068;2023-08-24T01:01:09;19.60;1.00
11617;DHT22;5864;52.998;9.068;2023-08-24T01:03:55;19.60;1.00
11617;DHT22;5864;52.998;9.068;2023-08-24T01:06:40;19.50;1.00
11617;DHT22;5864;52.998;9.068;2023-08-24T01:09:26;19.50;1.00
11617;DHT22;5864;52.998;9.068;2023-08-24T01:12:18;19.40;1.00
11617;DHT22;5864;52.998;9.068;2023-08-24T01:15:13;19.40;1.00
11617;DHT22;5864;52.998;9.068;2023-08-24T01:18:04;19.30;1.00
11617;DHT22;5864;52.998;9.068;2023-08-24T01:20:50;19.30;5.20
11617;DHT22;5864;52.998;9.068;2023-08-24T01:23:43;19.30;5.40
11617;DHT22;5864;52.998;9.068;2023-08-24T01:26:31;19.30;8.60
11617;DHT22;5864;52.998;9.068;2023-08-24T01:29:17;19.30;10.30
11617;DHT22;5864;52.998;9.068;2023-08-24T01:32:04;19.20;15.70
11617;DHT22;5864;52.998;9.068;2023-08-24T01:34:49;19.20;11.00
11617;DHT22;5864;52.998;9.068;2023-08-24T01:37:36;19.10;18.50
11617;DHT22;5864;52.998;9.068;2023-08-24T01:40:26;19.10;18.40
11617;DHT22;5864;52.998;9.068;2023-08-24T01:43:18;19.10;22.80
11617;DHT22;5864;52.998;9.068;2023-08-24T01:46:07;19.00;24.50
11617;DHT22;5864;52.998;9.068;2023-08-24T01:48:53;19.00;28.50
11617;DHT22;5864;52.998;9.068;2023-08-24T01:51:41;19.00;23.80
11617;DHT22;5864;52.998;9.068;2023-08-24T01:54:27;19.00;25.20
11617;DHT22;5864;52.998;9.068;2023-08-24T01:57:13;18.90;26.00
11617;DHT22;5864;52.998;9.068;2023-08-24T02:00:00;18.90;43.70
11617;DHT22;5864;52.998;9.068;2023-08-24T02:02:46;18.90;46.20
11617;DHT22;5864;52.998;9.068;2023-08-24T02:05:31;18.90;41.90
11617;DHT22;5864;52.998;9.068;2023-08-24T02:08:17;18.90;36.30
11617;DHT22;5864;52.998;9.068;2023-08-24T02:11:02;18.90;37.90
11617;DHT22;5864;52.998;9.068;2023-08-24T02:13:48;18.80;46.10
11617;DHT22;5864;52.998;9.068;2023-08-24T02:16:35;18.80;55.20
11617;DHT22;5864;52.998;9.068;2023-08-24T02:19:21;18.70;64.30
11617;DHT22;5864;52.998;9.068;2023-08-24T02:22:07;18.70;65.50
11617;DHT22;5864;52.998;9.068;2023-08-24T02:24:52;18.70;73.60
11617;DHT22;5864;52.998;9.068;2023-08-24T02:27:38;18.70;84.90
11617;DHT22;5864;52.998;9.068;2023-08-24T02:30:24;18.60;94.70
11617;DHT22;5864;52.998;9.068;2023-08-24T02:33:11;18.60;95.10
11617;DHT22;5864;52.998;9.068;2023-08-24T02:35:57;18.60;95.50
11617;DHT22;5864;52.998;9.068;2023-08-24T02:38:43;18.60;95.80
11617;DHT22;5864;52.998;9.068;2023-08-24T02:41:29;18.60;91.10
11617;DHT22;5864;52.998;9.068;2023-08-24T02:44:14;18.60;95.10
11617;DHT22;5864;52.998;9.068;2023-08-24T02:47:00;18.60;93.10
11617;DHT22;5864;52.998;9.068;2023-08-24T02:49:47;18.60;97.50
11617;DHT22;5864;52.998;9.068;2023-08-24T02:52:33;18.50;99.90
11617;DHT22;5864;52.998;9.068;2023-08-24T02:55:19;18.50;99.90
11617;DHT22;5864;52.998;9.068;2023-08-24T02:58:04;18.40;99.90
11617;DHT22;5864;52.998;9.068;2023-08-24T03:00:50;18.50;99.90
11617;DHT22;5864;52.998;9.068;2023-08-24T03:03:37;18.40;99.90
11617;DHT22;5864;52.998;9.068;2023-08-24T03:06:24;18.40;99.90
11617;DHT22;5864;52.998;9.068;2023-08-24T03:09:10;18.30;99.90
11617;DHT22;5864;52.998;9.068;2023-08-24T03:11:56;18.30;99.90
11617;DHT22;5864;52.998;9.068;2023-08-24T03:14:42;18.30;99.90
11617;DHT22;5864;52.998;9.068;2023-08-24T03:17:28;18.30;99.90
11617;DHT22;5864;52.998;9.068;2023-08-24T03:20:14;18.30;99.90
11617;DHT22;5864;52.998;9.068;2023-08-24T03:23:02;18.30;99.90
11617;DHT22;5864;52.998;9.068;2023-08-24T03:25:47;18.40;99.90
11617;DHT22;5864;52.998;9.068;2023-08-24T03:28:33;18.30;99.90
11617;DHT22;5864;52.998;9.068;2023-08-24T03:31:19;18.40;99.90
11617;DHT22;5864;52.998;9.068;2023-08-24T03:34:04;18.30;99.90
11617;DHT22;5864;52.998;9.068;2023-08-24T03:36:50;18.30;99.90
11617;DHT22;5864;52.998;9.068;2023-08-24T03:39:38;18.30;99.90
11617;DHT22;5864;52.998;9.068;2023-08-24T03:42:28;18.30;99.90
11617;DHT22;5864;52.998;9.068;2023-08-24T03:45:13;18.20;99.90
11617;DHT22;5864;52.998;9.068;2023-08-24T03:47:59;18.30;99.90
11617;DHT22;5864;52.998;9.068;2023-08-24T03:50:45;18.30;99.90
11617;DHT22;5864;52.998;9.068;2023-08-24T03:53:31;18.40;99.90
11617;DHT22;5864;52.998;9.068;2023-08-24T03:56:18;18.50;99.90
11617;DHT22;5864;52.998;9.068;2023-08-24T03:59:04;18.50;99.90
11617;DHT22;5864;52.998;9.068;2023-08-24T04:01:50;18.50;99.90
11617;DHT22;5864;52.998;9.068;2023-08-24T04:04:35;18.50;99.90
11617;DHT22;5864;52.998;9.068;2023-08-24T04:07:21;18.50;99.90
11617;DHT22;5864;52.998;9.068;2023-08-24T04:10:08;18.50;99.90
11617;DHT22;5864;52.998;9.068;2023-08-24T04:12:55;18.40;99.90
11617;DHT22;5864;52.998;9.068;2023-08-24T04:15:40;18.50;99.90
11617;DHT22;5864;52.998;9.068;2023-08-24T04:18:26;18.50;99.90
11617;DHT22;5864;52.998;9.068;2023-08-24T04:21:11;18.60;99.90
11617;DHT22;5864;52.998;9.068;2023-08-24T04:23:57;18.60;99.90
11617;DHT22;5864;52.998;9.068;2023-08-24T04:26:43;18.60;99.90
11617;DHT22;5864;52.998;9.068;2023-08-24T04:29:30;18.60;99.90
11617;DHT22;5864;52.998;9.068;2023-08-24T04:32:16;18.50;99.90
11617;DHT22;5864;52.998;9.068;2023-08-24T04:35:02;18.60;99.90
11617;DHT22;5864;52.998;9.068;2023-08-24T04:37:48;18.50;99.90
11617;DHT22;5864;52.998;9.068;2023-08-24T04:40:46;18.50;99.90
11617;DHT22;5864;52.998;9.068;2023-08-24T04:43:31;18.40;99.90
11617;DHT22;5864;52.998;9.068;2023-08-24T04:46:18;18.40;99.90
11617;DHT22;5864;52.998;9.068;2023-08-24T04:49:04;18.30;99.90
11617;DHT22;5864;52.998;9.068;2023-08-24T04:51:49;18.40;99.90
11617;DHT22;5864;52.998;9.068;2023-08-24T04:54:35;18.30;99.90
11617;DHT22;5864;52.998;9.068;2023-08-24T04:57:21;18.20;99.90
11617;DHT22;5864;52.998;9.068;2023-08-24T05:00:08;18.30;99.90
11617;DHT22;5864;52.998;9.068;2023-08-24T05:02:55;18.40;99.90
11617;DHT22;5864;52.998;9.068;2023-08-24T05:05:41;18.40;99.90
11617;DHT22;5864;52.998;9.068;2023-08-24T05:08:27;18.30;99.90
11617;DHT22;5864;52.998;9.068;2023-08-24T05:11:13;18.30;99.90
11617;DHT22;5864;52.998;9.068;2023-08-24T05:13:58;18.30;99.90
11617;DHT22;5864;52.998;9.068;2023-08-24T05:16:44;18.30;99.90
11617;DHT22;5864;52.998;9.068;2023-08-24T05:19:31;18.30;99.90
11617;DHT22;5864;52.998;9.068;2023-08-24T05:22:16;18.30;99.90
11617;DHT22;5864;52.998;9.068;2023-08-24T05:25:02;18.30;99.90
11617;DHT22;5864;52.998;9.068;2023-08-24T05:27:48;18.30;99.90
11617;DHT22;5864;52.998;9.068;2023-08-24T05:30:34;18.30;99.90
11617;DHT22;5864;52.998;9.068;2023-08-24T05:33:20;18.40;99.90
11617;DHT22;5864;52.998;9.068;2023-08-24T05:36:08;18.50;99.90
11617;DHT22;5864;52.998;9.068;2023-08-24T05:38:53;18.50;99.90
11617;DHT22;5864;52.998;9.068;2023-08-24T05:41:40;18.50;99.90
11617;DHT22;5864;52.998;9.068;2023-08-24T05:44:26;18.50;99.90
11617;DHT22;5864;52.998;9.068;2023-08-24T05:47:11;18.50;99.90
11617;DHT22;5864;52.998;9.068;2023-08-24T05:49:57;18.60;99.90
11617;DHT22;5864;52.998;9.068;2023-08-24T05:52:44;18.90;99.90
11617;DHT22;5864;52.998;9.068;2023-08-24T05:55:30;19.00;99.90
11617;DHT22;5864;52.998;9.068;2023-08-24T05:58:16;19.10;99.90
11617;DHT22;5864;52.998;9.068;2023-08-24T06:01:01;19.00;96.00
11617;DHT22;5864;52.998;9.068;2023-08-24T06:03:49;19.00;99.90
11617;DHT22;5864;52.998;9.068;2023-08-24T06:06:35;19.00;98.90
11617;DHT22;5864;52.998;9.068;2023-08-24T06:09:21;19.00;99.90
11617;DHT22;5864;52.998;9.068;2023-08-24T06:12:08;19.20;99.90
11617;DHT22;5864;52.998;9.068;2023-08-24T06:14:53;19.50;74.40
11617;DHT22;5864;52.998;9.068;2023-08-24T06:17:39;19.60;68.60
11617;DHT22;5864;52.998;9.068;2023-08-24T06:20:25;19.60;78.50
11617;DHT22;5864;52.998;9.068;2023-08-24T06:23:10;19.80;26.00
11617;DHT22;5864;52.998;9.068;2023-08-24T06:25:57;19.90;22.30
11617;DHT22;5864;52.998;9.068;2023-08-24T06:28:43;20.40;2.90
11617;DHT22;5864;52.998;9.068;2023-08-24T06:31:29;20.60;1.00
11617;DHT22;5864;52.998;9.068;2023-08-24T06:34:15;21.10;1.00
11617;DHT22;5864;52.998;9.068;2023-08-24T06:37:01;21.30;1.00
11617;DHT22;5864;52.998;9.068;2023-08-24T06:39:47;21.70;1.00
11617;DHT22;5864;52.998;9.068;2023-08-24T06:42:34;22.40;1.00
11617;DHT22;5864;52.998;9.068;2023-08-24T06:45:20;22.50;1.00
11617;DHT22;5864;52.998;9.068;2023-08-24T06:48:05;23.10;99.90
11617;DHT22;5864;52.998;9.068;2023-08-24T06:50:52;23.50;9.20
11617;DHT22;5864;52.998;9.068;2023-08-24T06:53:38;23.80;1.00
11617;DHT22;5864;52.998;9.068;2023-08-24T06:56:24;24.00;1.00
11617;DHT22;5864;52.998;9.068;2023-08-24T06:59:11;24.30;99.90
11617;DHT22;5864;52.998;9.068;2023-08-24T07:01:57;24.30;1.00
11617;DHT22;5864;52.998;9.068;2023-08-24T07:04:43;24.40;1.00
11617;DHT22;5864;52.998;9.068;2023-08-24T07:07:29;24.70;99.90
11617;DHT22;5864;52.998;9.068;2023-08-24T07:10:15;25.30;1.00
11617;DHT22;5864;52.998;9.068;2023-08-24T07:13:00;25.40;1.00
11617;DHT22;5864;52.998;9.068;2023-08-24T07:15:47;25.80;11.80
11617;DHT22;5864;52.998;9.068;2023-08-24T07:18:33;25.80;99.90
11617;DHT22;5864;52.998;9.068;2023-08-24T07:21:19;26.00;99.90
11617;DHT22;5864;52.998;9.068;2023-08-24T07:24:05;26.00;99.90
11617;DHT22;5864;52.998;9.068;2023-08-24T07:26:51;26.70;1.00
11617;DHT22;5864;52.998;9.068;2023-08-24T07:29:37;26.70;99.90
11617;DHT22;5864;52.998;9.068;2023-08-24T07:32:23;26.60;99.90
11617;DHT22;5864;52.998;9.068;2023-08-24T07:35:09;27.00;99.90
11617;DHT22;5864;52.998;9.068;2023-08-24T07:37:55;26.90;97.90
11617;DHT22;5864;52.998;9.068;2023-08-24T07:40:41;27.20;99.90
11617;DHT22;5864;52.998;9.068;2023-08-24T07:43:26;27.30;1.00
11617;DHT22;5864;52.998;9.068;2023-08-24T07:46:12;27.30;1.00
11617;DHT22;5864;52.998;9.068;2023-08-24T07:48:59;27.60;1.00
11617;DHT22;5864;52.998;9.068;2023-08-24T07:51:45;27.70;1.00
11617;DHT22;5864;52.998;9.068;2023-08-24T07:54:31;27.70;1.00
11617;DHT22;5864;52.998;9.068;2023-08-24T07:57:16;28.00;1.00
11617;DHT22;5864;52.998;9.068;2023-08-24T08:00:03;28.30;1.00
11617;DHT22;5864;52.998;9.068;2023-08-24T08:02:49;28.10;1.00
11617;DHT22;5864;52.998;9.068;2023-08-24T08:05:37;28.50;1.00
11617;DHT22;5864;52.998;9.068;2023-08-24T08:08:23;28.30;1.00
11617;DHT22;5864;52.998;9.068;2023-08-24T08:11:09;28.00;1.00
11617;DHT22;5864;52.998;9.068;2023-08-24T08:13:54;28.20;1.00
11617;DHT22;5864;52.998;9.068;2023-08-24T08:16:40;28.30;1.00
11617;DHT22;5864;52.998;9.068;2023-08-24T08:19:25;28.30;1.00
11617;DHT22;5864;52.998;9.068;2023-08-24T08:22:14;28.90;1.00
11617;DHT22;5864;52.998;9.068;2023-08-24T08:24:59;29.70;1.00
11617;DHT22;5864;52.998;9.068;2023-08-24T08:27:45;29.90;99.90
11617;DHT22;5864;52.998;9.068;2023-08-24T08:30:31;29.90;99.90
11617;DHT22;5864;52.998;9.068;2023-08-24T08:33:16;30.40;99.90
11617;DHT22;5864;52.998;9.068;2023-08-24T08:36:04;30.80;99.90
11617;DHT22;5864;52.998;9.068;2023-08-24T08:38:51;30.60;99.90
11617;DHT22;5864;52.998;9.068;2023-08-24T08:41:40;30.80;99.90
11617;DHT22;5864;52.998;9.068;2023-08-24T08:44:30;30.70;99.90
11617;DHT22;5864;52.998;9.068;2023-08-24T08:47:17;30.70;99.90
11617;DHT22;5864;52.998;9.068;2023-08-24T08:50:04;30.90;99.90
11617;DHT22;5864;52.998;9.068;2023-08-24T08:52:49;31.30;99.90
11617;DHT22;5864;52.998;9.068;2023-08-24T08:55:36;31.00;99.90
11617;DHT22;5864;52.998;9.068;2023-08-24T08:58:22;31.60;99.90
11617;DHT22;5864;52.998;9.068;2023-08-24T09:01:07;31.50;99.90
11617;DHT22;5864;52.998;9.068;2023-08-24T09:03:53;30.90;99.90
11617;DHT22;5864;52.998;9.068;2023-08-24T09:06:39;31.50;99.90
11617;DHT22;5864;52.998;9.068;2023-08-24T09:09:26;31.40;99.90
11617;DHT22;5864;52.998;9.068;2023-08-24T09:12:13;31.60;99.90
11617;DHT22;5864;52.998;9.068;2023-08-24T09:14:59;31.40;99.90
11617;DHT22;5864;52.998;9.068;2023-08-24T09:17:44;32.00;99.90
11617;DHT22;5864;52.998;9.068;2023-08-24T09:20:30;32.40;99.90
11617;DHT22;5864;52.998;9.068;2023-08-24T09:23:19;32.40;99.90
11617;DHT22;5864;52.998;9.068;2023-08-24T09:26:05;31.90;99.90
11617;DHT22;5864;52.998;9.068;2023-08-24T09:28:52;31.50;99.90
11617;DHT22;5864;52.998;9.068;2023-08-24T09:31:38;31.40;99.90
11617;DHT22;5864;52.998;9.068;2023-08-24T09:34:24;31.30;99.90
11617;DHT22;5864;52.998;9.068;2023-08-24T09:37:16;31.70;99.90
11617;DHT22;5864;52.998;9.068;2023-08-24T09:40:03;32.50;99.90
11617;DHT22;5864;52.998;9.068;2023-08-24T09:42:52;31.80;99.90
11617;DHT22;5864;52.998;9.068;2023-08-24T09:45:39;32.80;99.90
11617;DHT22;5864;52.998;9.068;2023-08-24T09:48:32;32.70;99.90
11617;DHT22;5864;52.998;9.068;2023-08-24T09:51:18;32.90;99.90
11617;DHT22;5864;52.998;9.068;2023-08-24T09:54:05;32.80;99.90
11617;DHT22;5864;52.998;9.068;2023-08-24T09:56:54;32.30;99.90
11617;DHT22;5864;52.998;9.068;2023-08-24T09:59:43;32.30;99.90
11617;DHT22;5864;52.998;9.068;2023-08-24T10:02:35;32.10;99.90
11617;DHT22;5864;52.998;9.068;2023-08-24T10:05:23;31.50;99.90
11617;DHT22;5864;52.998;9.068;2023-08-24T10:08:09;32.00;99.90
11617;DHT22;5864;52.998;9.068;2023-08-24T10:10:57;31.90;99.90
11617;DHT22;5864;52.998;9.068;2023-08-24T10:13:50;31.70;99.90
11617;DHT22;5864;52.998;9.068;2023-08-24T10:16:39;31.60;99.90
11617;DHT22;5864;52.998;9.068;2023-08-24T10:19:28;31.80;99.90
11617;DHT22;5864;52.998;9.068;2023-08-24T10:22:14;32.10;99.90
11617;DHT22;5864;52.998;9.068;2023-08-24T10:25:01;32.20;99.90
11617;DHT22;5864;52.998;9.068;2023-08-24T10:27:47;32.40;99.90
11617;DHT22;5864;52.998;9.068;2023-08-24T10:30:35;32.30;99.90
11617;DHT22;5864;52.998;9.068;2023-08-24T10:33:22;32.70;99.90
11617;DHT22;5864;52.998;9.068;2023-08-24T10:36:10;32.50;99.90
11617;DHT22;5864;52.998;9.068;2023-08-24T10:38:56;32.40;99.90
11617;DHT22;5864;52.998;9.068;2023-08-24T10:41:50;33.00;99.90
11617;DHT22;5864;52.998;9.068;2023-08-24T10:44:37;33.20;99.90
11617;DHT22;5864;52.998;9.068;2023-08-24T10:47:23;32.60;99.90
11617;DHT22;5864;52.998;9.068;2023-08-24T10:50:10;32.70;99.90
11617;DHT22;5864;52.998;9.068;2023-08-24T10:52:57;32.80;99.90
11617;DHT22;5864;52.998;9.068;2023-08-24T10:55:44;32.40;99.90
11617;DHT22;5864;52.998;9.068;2023-08-24T10:58:33;32.30;99.90
11617;DHT22;5864;52.998;9.068;2023-08-24T11:01:20;32.40;99.90
11617;DHT22;5864;52.998;9.068;2023-08-24T11:04:06;32.80;99.90
11617;DHT22;5864;52.998;9.068;2023-08-24T11:06:54;33.10;99.90
11617;DHT22;5864;52.998;9.068;2023-08-24T11:09:47;32.80;99.90
11617;DHT22;5864;52.998;9.068;2023-08-24T11:15:52;33.20;99.90
11617;DHT22;5864;52.998;9.068;2023-08-24T11:18:42;33.20;99.90
11617;DHT22;5864;52.998;9.068;2023-08-24T11:21:29;32.60;99.90
11617;DHT22;5864;52.998;9.068;2023-08-24T11:24:16;33.10;99.90
11617;DHT22;5864;52.998;9.068;2023-08-24T11:27:03;32.60;99.90
11617;DHT22;5864;52.998;9.068;2023-08-24T11:29:58;32.30;99.90
11617;DHT22;5864;52.998;9.068;2023-08-24T11:32:44;31.80;99.90
11617;DHT22;5864;52.998;9.068;2023-08-24T11:35:35;31.60;99.90
11617;DHT22;5864;52.998;9.068;2023-08-24T11:38:21;31.50;99.90
11617;DHT22;5864;52.998;9.068;2023-08-24T11:41:13;32.20;99.90
11617;DHT22;5864;52.998;9.068;2023-08-24T11:44:01;32.40;99.90
11617;DHT22;5864;52.998;9.068;2023-08-24T11:46:46;32.30;99.90
11617;DHT22;5864;52.998;9.068;2023-08-24T11:49:33;32.60;99.90
11617;DHT22;5864;52.998;9.068;2023-08-24T11:52:18;32.60;99.90
11617;DHT22;5864;52.998;9.068;2023-08-24T11:55:05;32.10;99.90
11617;DHT22;5864;52.998;9.068;2023-08-24T11:57:53;31.40;99.90
11617;DHT22;5864;52.998;9.068;2023-08-24T12:00:42;31.50;99.90
11617;DHT22;5864;52.998;9.068;2023-08-24T12:03:27;32.00;99.90
11617;DHT22;5864;52.998;9.068;2023-08-24T12:06:16;31.90;99.90
11617;DHT22;5864;52.998;9.068;2023-08-24T12:09:04;31.90;99.90
11617;DHT22;5864;52.998;9.068;2023-08-24T12:11:55;31.70;99.90
11617;DHT22;5864;52.998;9.068;2023-08-24T12:14:43;31.40;99.90
11617;DHT22;5864;52.998;9.068;2023-08-24T12:17:30;31.40;99.90
11617;DHT22;5864;52.998;9.068;2023-08-24T12:20:18;31.30;99.90
11617;DHT22;5864;52.998;9.068;2023-08-24T12:23:04;31.10;99.90
11617;DHT22;5864;52.998;9.068;2023-08-24T12:25:54;31.20;99.90
11617;DHT22;5864;52.998;9.068;2023-08-24T12:28:39;30.90;99.90
11617;DHT22;5864;52.998;9.068;2023-08-24T12:31:26;30.60;99.90
11617;DHT22;5864;52.998;9.068;2023-08-24T12:34:15;30.70;99.90
11617;DHT22;5864;52.998;9.068;2023-08-24T12:37:00;30.50;99.90
11617;DHT22;5864;52.998;9.068;2023-08-24T12:39:46;30.30;99.90
11617;DHT22;5864;52.998;9.068;2023-08-24T12:42:33;30.50;99.90
11617;DHT22;5864;52.998;9.068;2023-08-24T12:45:18;30.10;99.90
11617;DHT22;5864;52.998;9.068;2023-08-24T12:48:04;30.10;99.90
11617;DHT22;5864;52.998;9.068;2023-08-24T12:50:52;29.90;99.90
11617;DHT22;5864;52.998;9.068;2023-08-24T12:53:38;29.90;99.90
11617;DHT22;5864;52.998;9.068;2023-08-24T12:56:23;29.90;99.90
11617;DHT22;5864;52.998;9.068;2023-08-24T12:59:09;29.90;99.90
11617;DHT22;5864;52.998;9.068;2023-08-24T13:01:55;30.00;99.90
11617;DHT22;5864;52.998;9.068;2023-08-24T13:04:41;29.90;99.90
11617;DHT22;5864;52.998;9.068;2023-08-24T13:07:27;30.10;99.90
11617;DHT22;5864;52.998;9.068;2023-08-24T13:10:13;29.90;99.90
11617;DHT22;5864;52.998;9.068;2023-08-24T13:12:58;29.70;99.90
11617;DHT22;5864;52.998;9.068;2023-08-24T13:15:44;29.80;99.90
11617;DHT22;5864;52.998;9.068;2023-08-24T13:18:30;30.00;99.90
11617;DHT22;5864;52.998;9.068;2023-08-24T13:21:15;30.10;99.90
11617;DHT22;5864;52.998;9.068;2023-08-24T13:24:02;30.00;99.90
11617;DHT22;5864;52.998;9.068;2023-08-24T13:26:48;30.00;99.90
11617;DHT22;5864;52.998;9.068;2023-08-24T13:29:34;30.10;99.90
11617;DHT22;5864;52.998;9.068;2023-08-24T13:32:19;29.90;99.90
11617;DHT22;5864;52.998;9.068;2023-08-24T13:35:06;30.30;99.90
11617;DHT22;5864;52.998;9.068;2023-08-24T13:37:52;30.20;99.90
11617;DHT22;5864;52.998;9.068;2023-08-24T13:40:40;30.30;99.90
11617;DHT22;5864;52.998;9.068;2023-08-24T13:43:25;30.50;99.90
11617;DHT22;5864;52.998;9.068;2023-08-24T13:46:11;31.00;99.90
11617;DHT22;5864;52.998;9.068;2023-08-24T13:48:56;30.70;99.90
11617;DHT22;5864;52.998;9.068;2023-08-24T13:51:41;30.80;99.90
11617;DHT22;5864;52.998;9.068;2023-08-24T13:54:27;30.90;99.90
11617;DHT22;5864;52.998;9.068;2023-08-24T13:57:16;30.90;99.90
11617;DHT22;5864;52.998;9.068;2023-08-24T14:00:02;30.80;99.90
11617;DHT22;5864;52.998;9.068;2023-08-24T14:02:48;30.70;99.90
11617;DHT22;5864;52.998;9.068;2023-08-24T14:05:38;30.50;99.90
11617;DHT22;5864;52.998;9.068;2023-08-24T14:08:24;30.30;99.90
11617;DHT22;5864;52.998;9.068;2023-08-24T14:11:10;30.20;99.90
11617;DHT22;5864;52.998;9.068;2023-08-24T14:13:57;30.40;99.90
11617;DHT22;5864;52.998;9.068;2023-08-24T14:16:43;30.20;99.90
11617;DHT22;5864;52.998;9.068;2023-08-24T14:19:29;29.90;99.90
11617;DHT22;5864;52.998;9.068;2023-08-24T14:22:15;29.80;99.90
11617;DHT22;5864;52.998;9.068;2023-08-24T14:25:00;29.90;99.90
11617;DHT22;5864;52.998;9.068;2023-08-24T14:27:46;29.70;99.90
11617;DHT22;5864;52.998;9.068;2023-08-24T14:30:33;29.80;99.90
11617;DHT22;5864;52.998;9.068;2023-08-24T14:33:19;29.90;99.90
11617;DHT22;5864;52.998;9.068;2023-08-24T14:36:05;29.70;99.90
11617;DHT22;5864;52.998;9.068;2023-08-24T14:38:51;29.60;99.90
11617;DHT22;5864;52.998;9.068;2023-08-24T14:41:37;29.40;99.90
11617;DHT22;5864;52.998;9.068;2023-08-24T14:44:22;29.30;99.90
11617;DHT22;5864;52.998;9.068;2023-08-24T14:47:09;29.30;99.90
11617;DHT22;5864;52.998;9.068;2023-08-24T14:49:55;29.20;99.90
11617;DHT22;5864;52.998;9.068;2023-08-24T14:52:41;29.20;99.90
11617;DHT22;5864;52.998;9.068;2023-08-24T14:55:27;29.20;99.90
11617;DHT22;5864;52.998;9.068;2023-08-24T14:58:13;29.30;99.90
11617;DHT22;5864;52.998;9.068;2023-08-24T15:00:59;29.30;99.90
11617;DHT22;5864;52.998;9.068;2023-08-24T15:03:46;29.40;99.90
11617;DHT22;5864;52.998;9.068;2023-08-24T15:06:31;29.30;99.90
11617;DHT22;5864;52.998;9.068;2023-08-24T15:09:17;29.30;99.90
11617;DHT22;5864;52.998;9.068;2023-08-24T15:12:04;29.20;99.90
11617;DHT22;5864;52.998;9.068;2023-08-24T15:14:57;29.20;99.90
11617;DHT22;5864;52.998;9.068;2023-08-24T15:17:43;29.00;99.90
11617;DHT22;5864;52.998;9.068;2023-08-24T15:20:31;28.90;99.90
11617;DHT22;5864;52.998;9.068;2023-08-24T15:23:23;29.00;99.90
11617;DHT22;5864;52.998;9.068;2023-08-24T15:26:09;29.00;99.90
11617;DHT22;5864;52.998;9.068;2023-08-24T15:29:10;28.80;99.90
11617;DHT22;5864;52.998;9.068;2023-08-24T15:31:56;28.80;99.90
11617;DHT22;5864;52.998;9.068;2023-08-24T15:34:42;28.70;99.90
11617;DHT22;5864;52.998;9.068;2023-08-24T15:37:29;28.50;99.90
11617;DHT22;5864;52.998;9.068;2023-08-24T15:40:15;28.50;99.90
11617;DHT22;5864;52.998;9.068;2023-08-24T15:43:02;28.40;99.90
11617;DHT22;5864;52.998;9.068;2023-08-24T15:45:49;28.30;99.90
11617;DHT22;5864;52.998;9.068;2023-08-24T15:48:35;28.20;99.90
11617;DHT22;5864;52.998;9.068;2023-08-24T15:51:23;28.20;99.90
11617;DHT22;5864;52.998;9.068;2023-08-24T15:54:10;28.20;99.90
11617;DHT22;5864;52.998;9.068;2023-08-24T15:56:55;28.30;99.90
11617;DHT22;5864;52.998;9.068;2023-08-24T15:59:42;28.30;99.90
11617;DHT22;5864;52.998;9.068;2023-08-24T16:02:27;28.30;99.90
11617;DHT22;5864;52.998;9.068;2023-08-24T16:05:13;28.30;99.90
11617;DHT22;5864;52.998;9.068;2023-08-24T16:07:59;28.20;99.90
11617;DHT22;5864;52.998;9.068;2023-08-24T16:10:46;28.10;99.90
11617;DHT22;5864;52.998;9.068;2023-08-24T16:13:32;28.10;99.90
11617;DHT22;5864;52.998;9.068;2023-08-24T16:16:17;27.90;99.90
11617;DHT22;5864;52.998;9.068;2023-08-24T16:19:03;27.90;99.90
11617;DHT22;5864;52.998;9.068;2023-08-24T16:21:49;27.80;1.00
11617;DHT22;5864;52.998;9.068;2023-08-24T16:24:35;27.60;99.90
11617;DHT22;5864;52.998;9.068;2023-08-24T16:27:22;27.50;99.90
11617;DHT22;5864;52.998;9.068;2023-08-24T16:30:08;27.60;99.90
11617;DHT22;5864;52.998;9.068;2023-08-24T16:32:53;27.50;99.90
11617;DHT22;5864;52.998;9.068;2023-08-24T16:35:40;27.40;1.00
11617;DHT22;5864;52.998;9.068;2023-08-24T16:38:25;27.40;1.00
11617;DHT22;5864;52.998;9.068;2023-08-24T16:41:14;27.30;1.00
11617;DHT22;5864;52.998;9.068;2023-08-24T16:44:01;27.30;1.00
11617;DHT22;5864;52.998;9.068;2023-08-24T16:46:47;27.30;1.00
11617;DHT22;5864;52.998;9.068;2023-08-24T16:49:34;27.10;1.00
11617;DHT22;5864;52.998;9.068;2023-08-24T16:52:19;27.10;1.00
11617;DHT22;5864;52.998;9.068;2023-08-24T16:55:06;27.00;1.00
11617;DHT22;5864;52.998;9.068;2023-08-24T16:57:52;27.00;1.00
11617;DHT22;5864;52.998;9.068;2023-08-24T17:00:40;27.00;1.00
11617;DHT22;5864;52.998;9.068;2023-08-24T17:03:26;27.00;1.00
11617;DHT22;5864;52.998;9.068;2023-08-24T17:06:11;26.90;1.00
11617;DHT22;5864;52.998;9.068;2023-08-24T17:08:57;26.90;1.00
11617;DHT22;5864;52.998;9.068;2023-08-24T17:11:43;26.80;1.00
11617;DHT22;5864;52.998;9.068;2023-08-24T17:14:28;27.60;1.00
11617;DHT22;5864;52.998;9.068;2023-08-24T17:17:15;26.60;1.00
11617;DHT22;5864;52.998;9.068;2023-08-24T17:20:01;26.60;1.00
11617;DHT22;5864;52.998;9.068;2023-08-24T17:22:48;26.50;1.00
11617;DHT22;5864;52.998;9.068;2023-08-24T17:25:34;26.40;99.90
11617;DHT22;5864;52.998;9.068;2023-08-24T17:28:22;26.20;90.70
11617;DHT22;5864;52.998;9.068;2023-08-24T17:31:07;26.30;59.90
11617;DHT22;5864;52.998;9.068;2023-08-24T17:33:56;26.30;99.90
11617;DHT22;5864;52.998;9.068;2023-08-24T17:36:42;26.30;99.90
11617;DHT22;5864;52.998;9.068;2023-08-24T17:39:27;26.30;9.70
11617;DHT22;5864;52.998;9.068;2023-08-24T17:42:17;26.30;1.00
11617;DHT22;5864;52.998;9.068;2023-08-24T17:45:03;26.20;66.70
11617;DHT22;5864;52.998;9.068;2023-08-24T17:47:50;26.10;99.90
11617;DHT22;5864;52.998;9.068;2023-08-24T17:50:36;26.20;99.90
11617;DHT22;5864;52.998;9.068;2023-08-24T17:53:22;26.20;99.90
11617;DHT22;5864;52.998;9.068;2023-08-24T17:56:11;26.20;99.90